WEATHER BRIEFING

(Some information has been removed or changed for training purposes. You should also review the weather briefing that applies to your checkride assigned IFR cross country  and answer the weather questions contained in this book in regards to how the briefing relates to your flight)

===  Standard Route Briefing 
Depart:KLGB Arrive:KSAN
===  Route:SLI OCN MZB

ADVERSE CONDITIONS

   SYNOPSIS AND VFR CLOUDS/WEATHER FORECASTS
SFOC FA 070558 COR
SYNOPSIS AND VFR CLDS/WX
CLDS/WX VALID UNTIL 071400..OTLK VALID 072200-070400
WA OR CA AND CSTL WTRS
.
SRN CA..VBG-NID-60NNW BIH LN SWD
CSTL SXNS S OF LAX..OVC015 LYRD FL220. TIL 15Z VIS 3SM RA BR. WND W
20G30KT. 18Z OVC020. OTLK..MVFR CIG.
INLAND.. OVC020 LYRD FL220. VIS 3SM -RA BR. 14Z VIS 3-5SM
SCT -SHRA. 17Z ISOL -SHRA. OTLK..MVFR CIG.
INTR MTNS.. OVC040 LYRD FL220. VIS 3SM -RA. 18Z OVC050. VIS 3-5SM
-RA BR. OTLK..IFR CIG BR.
CSTL WTRS
S OF RZS.. OVC020 TOP 120. VIS 3SM BR. 19Z ISOL -SHRA. WND W G25KT.
OTLK..IFR CIG WND

  SIGMETS
SFO WS NO CURRENT DATA

   CONVECTIVE SIGMETS
MKCW WST 070555
CONVECTIVE SIGMET..NONE
OUTLOOK VALID 070755-071155
TS ARE NOT EXPD.

   CENTER WEATHER ADVISORIES
ZLA CWA NO CURRENT DATA

   AIRMETS
SFOS WA 070627 AMD
AIRMET SIERRA UPDT 1 FOR IFR AND MTN OBSCN VALID UNTIL 071200
.
AIRMET IFR..CA AND CSTL WTRS..UPDT
FROM SLI TO MZB TO RAL TO SLI
CIG BLW 010/VIS BLW 3SM PCPN/BR. CONDS CONTG THRU 15Z..
AIRMET MTN OBSCN..WA OR CA
FROM SFO TO LAX TO PSP TO WJF TO SFO
MTNS OBSC BY CLDS/PCPN/BR. CONDS CONTG BYD 09Z THRU 15Z.
..
SFOT WA 070645
AIRMET TANGO FOR TURB VALID UNTIL 071200
.
AIRMET TURB..WA OR CA ID MT NV AND CSTL WTRS
FROM SFO TO SMX TO RZS TO SFO
MOD TURB BLW 080. CONDS DVLPG 10-14Z. CONDS CONTG THRU 15Z.
..
SFOZ WA 070445
AIRMET ZULU FOR ICE AND FRZLVL VALID UNTIL 070900
.
AIRMET ICE..WA OR CA NV AND CSTL WTRS
FROM LAX TO SAN  TO PSP TO LAX
MOD ICE BTN  FRZLVL AND FL180. FRZLVL 070-100. CONDS CONTG BYD 18Z
.
FRZLVL..RANGING FROM SFC-130 ACRS AREA
070-100 ALG LAX TO SAN  TO PSP TO LAX  

   WEATHER OBSERVATIONS
METAR KLGB 070453Z 28015KT 3SM 010BKN 12/11 A2997
SPECI KSLI 070531Z 24013KT 2SM RA 009OVC 11/11 A2998
METAR KSNA 070453Z 21013G17KT 4SM -RA SCT004 010OVC 13/12 A2994
KOKB 070539Z AUTO 22014KT 2SM -RA 006OVC 10/09 A2998
KCRQ 070515Z AUTO 24012G19KT 3SM -RA 003BKN 11/10 A2997
METAR KMYF 070540Z 25016KT 1/2SM FG VV003 10/09 A2999
METAR KSAN 070451Z 27013G21KT 1 1/2SM -RA 009BKN 012OVC 14/12 A3001

   PILOT REPORTS
LGB UA /OV LGB075020/TM 0454/FL80/TP C182/TA M04/IC LGT RIME/RM ZLA CWSU

   RADAR REPORTS
None

   TERMINAL FORECASTS
TAF KLGB 070536Z 0706/0806 28015KT 3SM BKN010
     FM071000 29014KT 2SM RA BKN012
     FM071400 30006KT 4SM BR BKN008
     FM071800 VRB03KT P6SM SKC
TAF KSNA 070539Z 0706/0806 21014G18KT 3SM RA OVC010
     FM070900 22012KT 5SM BR OVC009
     FM071800 19009KT 6SM SCT011
     FM080000 19008KT 5SM BR BKN012
     FM080500 21008KT P6SM SCT010 WS010/05030KT
TAF KCRQ 070539Z 0706/0806 24014G20KT 3SM -RA BKN004 TEMPO 0706/0707 BKN002
     FM070700 23019G22KT 3SM BR OVC005
     FM071200 25011KT 5SM BR OVC008
     FM071800 25006KT 6SM BR SCT010
     FM080000 VRB03KT 5SM BR BKN010

TAF KSAN 070539Z 0706/0812 27009KT 1 SM -RA OVC010
TEMPO 0706/0707 OVC015
     FM070900 25013KT 4SM BR OVC009
     FM071800 24007KT 6SM SCT013
     FM080000 VRB03KT P6SM BR BKN010
    WINDS ALOFT FORECASTS

DATA BASED ON 070000Z
VALID 070600Z   FOR USE 0500-1200Z. TEMPS NEG ABV 24000

FT         3000      6000     9000     12000      18000    24000 
ONT      2819 3123+01 3019-11 3019-17 2823-29 2621-39
SAN      2721 3225+02 3020-13 2815-20 2816-29 2824-39

   TEMPORARY FLIGHT RESTRICTIONS
FDC 9/5145 ZLA  PART 1 OF 2 CA.. FLIGHT RESTRICTIONS. DISNEYLAND
     THEME PARK,
     ANAHEIM, CA, FEBRUARY 17, 2009 LOCAL. THIS NOTAM
     'NATIONAL DEFENSE AIRSPACE'. ANY PERSON WHO KNOWINGLY OR WILLFULLY VIOLATES THE RULES CONCERNING OPERATIONS IN THIS AIRSPACE MAY BE
SUBJECT TO CERTAIN CRIMINAL PENALTIES UNDER 49 USC 46307. PILOTS WHO DO NOT ADHERE TO THE FOLLOWING PROCEDURES MAY BE INTERCEPTED,
DETAINED AND INTERVIEWED BY LAW ENFORCEMENT/SECURITY PERSONNEL.
ALL AIRCRAFT FLIGHT OPERATIONS ARE PROHIBITED
WITHIN A 3 NMR OF 334805N/1175517W OR THE SLI066006.8 UP TO AND INCLUDING 3000 FT AGL EFFECTIVE 0902170801 UTC (0001 LOCAL 02/17/09) UNTIL FURTHER NOTICE.
THE RESTRICTIONS DO NOT APPLY TO; THOSE AIRCRAFT AUTHORIZED BY AND IN CONTACT WITH ATC FOR OPERATIONAL OR SAFETY OF FLIGHT PURPOSES,
DEPARTMENT OF DEFENSE, LAW ENFORCEMENT, AND AIR AMBULANCE FLIGHT OPERATIONS. FLIGHTS CONDUCTED FOR OPERATIONAL PURPOSES OF ANY DISNEY
NOTICE TO AIRMEN (NOTAMS)
  
DEPARTURE NOTAMS
LGB 12/013 LGB RWY 16R/34L CLSD EXC TAXI TIL 1202070100
LGB 01/002 LGB OBST TOWER 503 (153 AGL) 1.21 SSW LGTS OTS (ASR
     1218222) TIL 1201202203
LGB 01/005 LGB TWY A CLSD WEF 1201090400-1201131300

ROUTE NOTAMS
SAN 10/039 MZB AIRSPACE INTENSIVE HEL OPS 1500/BLW 3 NM EITHER SIDE
     OF A LINE FM MZB024011 TO IPL240010 DALGT HRS AVOIDANCE
     ADZD

DESTINATION NOTAMS
SAN 01/007 SAN OBST TOWER 462 (446 AGL) 4.08 SE LGTS OTS (ASR
     1262013) TIL 1201181809
UAR 12/025 SAN AIRSPACE LYNDI2 ARRIVAL.. EXPECT RNAV(GPS) RWY
     27 OR LOC RWY 27 APPROACH. LOST COMMUNICATIONS: JOIN THE SAN DIEGO
     RNAV(GPS) RWY 27 APPROACH AT LYNDI. IF UNABLE, PROCEED DIRECT VYDDA
     AND JOIN THE SAN DIEGO LOC RWY 27 APPROACH.
ARTCC NOTAMS
SUAW 01/454 ZLA AIRSPACE R4807A ACT SFC-UNL WEF
     1201070301-1201091359

   FLIGHT DATA CENTER NOTAMS
FDC 1/4569 SAN FI/T IAP SID SAN DIEGO INTL, SAN DIEGO, CA
S-ILS 9: DA 473/HAT 456 CATS A/B. VISIBILITY CATS A/B 1 1/2.
     CIRCLING: MDA 840/HAA 823 CATS A/B.
FDC 1/6126 ZLA  CA.. FI/T AIRWAY ZLA.
     V201 FROM BERRI, CA TO SOLED, CA MEA 8800, FROM SOLED, CA TO
     PALMDALE (PMD)  VORTAC,CA MEA 8800 SE BOUND 7500 NW BOUND.


These weather graphics are used as examples, and do not reflect the information contained in the weather briefing.